sensor_id;sensor_type;location;lat;lon;timestamp;pressure;altitude;pressure_sealevel;temperature;humidity
62694;BME280;48759;52.544;13.418;2023-05-02T00:00:47;100679.59;;;10.15;99.11
62694;BME280;48759;52.544;13.418;2023-05-02T00:03:36;100684.22;;;10.08;99.06
62694;BME280;48759;52.544;13.418;2023-05-02T00:06:09;100689.03;;;10.00;99.09
62694;BME280;48759;52.544;13.418;2023-05-02T00:08:59;100688.75;;;9.94;99.33
62694;BME280;48759;52.544;13.418;2023-05-02T00:11:29;100684.91;;;9.82;99.78
62694;BME280;48759;52.544;13.418;2023-05-02T00:14:15;100695.91;;;9.82;100.00
62694;BME280;48759;52.544;13.418;2023-05-02T00:16:57;100682.31;;;9.74;100.00
62694;BME280;48759;52.544;13.418;2023-05-02T00:19:37;100679.34;;;9.69;100.00
62694;BME280;48759;52.544;13.418;2023-05-02T00:22:20;100676.16;;;9.72;100.00
62694;BME280;48759;52.544;13.418;2023-05-02T00:25:14;100681.00;;;9.70;100.00
62694;BME280;48759;52.544;13.418;2023-05-02T00:28:05;100674.03;;;9.68;100.00
62694;BME280;48759;52.544;13.418;2023-05-02T00:30:51;100685.84;;;9.62;100.00
62694;BME280;48759;52.544;13.418;2023-05-02T00:33:39;100680.13;;;9.63;100.00
62694;BME280;48759;52.544;13.418;2023-05-02T00:36:31;100681.72;;;9.44;100.00
62694;BME280;48759;52.544;13.418;2023-05-02T00:39:25;100678.97;;;9.44;100.00
62694;BME280;48759;52.544;13.418;2023-05-02T00:42:07;100680.66;;;9.45;100.00
62694;BME280;48759;52.544;13.418;2023-05-02T00:44:56;100671.56;;;9.45;100.00
62694;BME280;48759;52.544;13.418;2023-05-02T00:47:42;100682.59;;;9.51;100.00
62694;BME280;48759;52.544;13.418;2023-05-02T00:50:47;100679.16;;;9.43;100.00
62694;BME280;48759;52.544;13.418;2023-05-02T00:53:37;100679.53;;;9.40;100.00
62694;BME280;48759;52.544;13.418;2023-05-02T00:56:15;100676.72;;;9.33;100.00
62694;BME280;48759;52.544;13.418;2023-05-02T00:59:02;100687.03;;;9.31;100.00
62694;BME280;48759;52.544;13.418;2023-05-02T01:01:52;100681.50;;;9.25;100.00
62694;BME280;48759;52.544;13.418;2023-05-02T01:04:42;100681.91;;;9.21;100.00
62694;BME280;48759;52.544;13.418;2023-05-02T01:08:09;100677.63;;;9.12;100.00
62694;BME280;48759;52.544;13.418;2023-05-02T01:10:54;100680.16;;;9.14;100.00
62694;BME280;48759;52.544;13.418;2023-05-02T01:13:41;100676.72;;;9.05;100.00
62694;BME280;48759;52.544;13.418;2023-05-02T01:16:22;100676.72;;;9.05;100.00
62694;BME280;48759;52.544;13.418;2023-05-02T01:22:07;100686.66;;;9.06;100.00
62694;BME280;48759;52.544;13.418;2023-05-02T01:24:59;100685.56;;;9.07;100.00
62694;BME280;48759;52.544;13.418;2023-05-02T01:27:46;100688.31;;;9.07;100.00
62694;BME280;48759;52.544;13.418;2023-05-02T01:31:03;100686.03;;;9.11;100.00
62694;BME280;48759;52.544;13.418;2023-05-02T01:34:10;100693.56;;;9.02;100.00
62694;BME280;48759;52.544;13.418;2023-05-02T01:36:43;100694.59;;;9.01;100.00
62694;BME280;48759;52.544;13.418;2023-05-02T01:39:14;100694.81;;;9.00;100.00
62694;BME280;48759;52.544;13.418;2023-05-02T01:42:00;100697.31;;;8.95;100.00
62694;BME280;48759;52.544;13.418;2023-05-02T01:44:32;100704.16;;;8.84;100.00
62694;BME280;48759;52.544;13.418;2023-05-02T01:47:10;100707.31;;;8.81;100.00
62694;BME280;48759;52.544;13.418;2023-05-02T01:49:39;100709.31;;;8.72;100.00
62694;BME280;48759;52.544;13.418;2023-05-02T01:52:29;100711.34;;;8.64;100.00
62694;BME280;48759;52.544;13.418;2023-05-02T01:54:59;100706.56;;;8.51;100.00
62694;BME280;48759;52.544;13.418;2023-05-02T01:57:43;100711.94;;;8.44;100.00
62694;BME280;48759;52.544;13.418;2023-05-02T02:00:27;100713.41;;;8.40;100.00
62694;BME280;48759;52.544;13.418;2023-05-02T02:03:26;100717.75;;;8.35;100.00
62694;BME280;48759;52.544;13.418;2023-05-02T02:06:26;100712.66;;;8.32;100.00
62694;BME280;48759;52.544;13.418;2023-05-02T02:09:08;100709.06;;;8.31;100.00
62694;BME280;48759;52.544;13.418;2023-05-02T02:12:10;100725.25;;;8.26;100.00
62694;BME280;48759;52.544;13.418;2023-05-02T02:33:55;100748.38;;;7.80;100.00
62694;BME280;48759;52.544;13.418;2023-05-02T02:36:44;100754.91;;;7.79;100.00
62694;BME280;48759;52.544;13.418;2023-05-02T02:39:26;100751.56;;;7.68;100.00
62694;BME280;48759;52.544;13.418;2023-05-02T02:42:09;100755.44;;;7.59;100.00
62694;BME280;48759;52.544;13.418;2023-05-02T02:44:59;100772.25;;;7.56;100.00
62694;BME280;48759;52.544;13.418;2023-05-02T02:47:43;100770.63;;;7.47;100.00
62694;BME280;48759;52.544;13.418;2023-05-02T02:50:41;100771.31;;;7.49;100.00
62694;BME280;48759;52.544;13.418;2023-05-02T02:53:32;100773.25;;;7.41;100.00
62694;BME280;48759;52.544;13.418;2023-05-02T02:59:34;100782.75;;;7.30;100.00
62694;BME280;48759;52.544;13.418;2023-05-02T03:02:09;100789.94;;;7.31;100.00
62694;BME280;48759;52.544;13.418;2023-05-02T03:04:50;100785.19;;;7.25;100.00
62694;BME280;48759;52.544;13.418;2023-05-02T03:10:35;100798.94;;;7.17;100.00
62694;BME280;48759;52.544;13.418;2023-05-02T03:13:24;100810.97;;;7.08;100.00
62694;BME280;48759;52.544;13.418;2023-05-02T03:16:37;100812.00;;;7.07;100.00
62694;BME280;48759;52.544;13.418;2023-05-02T03:19:31;100821.31;;;6.98;100.00
62694;BME280;48759;52.544;13.418;2023-05-02T03:22:23;100819.59;;;6.97;100.00
62694;BME280;48759;52.544;13.418;2023-05-02T03:25:03;100825.44;;;6.94;100.00
62694;BME280;48759;52.544;13.418;2023-05-02T03:28:01;100826.88;;;6.81;100.00
62694;BME280;48759;52.544;13.418;2023-05-02T03:30:40;100835.41;;;6.86;100.00
62694;BME280;48759;52.544;13.418;2023-05-02T03:33:15;100840.88;;;6.86;100.00
62694;BME280;48759;52.544;13.418;2023-05-02T03:35:49;100846.03;;;6.81;100.00
62694;BME280;48759;52.544;13.418;2023-05-02T03:38:35;100844.84;;;6.76;100.00
62694;BME280;48759;52.544;13.418;2023-05-02T03:41:32;100846.03;;;6.73;100.00
62694;BME280;48759;52.544;13.418;2023-05-02T03:44:43;100850.16;;;6.69;100.00
62694;BME280;48759;52.544;13.418;2023-05-02T03:47:17;100855.47;;;6.71;100.00
62694;BME280;48759;52.544;13.418;2023-05-02T03:49:58;100866.91;;;6.66;100.00
62694;BME280;48759;52.544;13.418;2023-05-02T03:52:45;100874.25;;;6.66;100.00
62694;BME280;48759;52.544;13.418;2023-05-02T03:55:26;100872.03;;;6.69;100.00
62694;BME280;48759;52.544;13.418;2023-05-02T03:58:03;100857.69;;;6.67;100.00
62694;BME280;48759;52.544;13.418;2023-05-02T04:00:49;100862.13;;;6.68;100.00
62694;BME280;48759;52.544;13.418;2023-05-02T04:03:21;100870.84;;;6.64;100.00
62694;BME280;48759;52.544;13.418;2023-05-02T04:05:51;100882.59;;;6.72;100.00
62694;BME280;48759;52.544;13.418;2023-05-02T04:08:21;100885.03;;;6.67;100.00
62694;BME280;48759;52.544;13.418;2023-05-02T04:11:04;100884.31;;;6.73;100.00
62694;BME280;48759;52.544;13.418;2023-05-02T04:13:47;100882.97;;;6.69;100.00
62694;BME280;48759;52.544;13.418;2023-05-02T04:16:27;100887.59;;;6.69;100.00
62694;BME280;48759;52.544;13.418;2023-05-02T04:19:15;100891.53;;;6.74;100.00
62694;BME280;48759;52.544;13.418;2023-05-02T04:21:50;100900.72;;;6.73;100.00
62694;BME280;48759;52.544;13.418;2023-05-02T04:24:47;100903.31;;;6.75;100.00
62694;BME280;48759;52.544;13.418;2023-05-02T04:27:53;100910.50;;;6.76;100.00
62694;BME280;48759;52.544;13.418;2023-05-02T04:37:24;100926.69;;;6.94;100.00
62694;BME280;48759;52.544;13.418;2023-05-02T04:40:11;100927.97;;;7.06;100.00
62694;BME280;48759;52.544;13.418;2023-05-02T04:43:05;100917.03;;;7.06;100.00
62694;BME280;48759;52.544;13.418;2023-05-02T04:45:53;100915.09;;;7.14;100.00
62694;BME280;48759;52.544;13.418;2023-05-02T04:48:55;100927.28;;;7.35;100.00
62694;BME280;48759;52.544;13.418;2023-05-02T04:51:41;100936.78;;;7.24;100.00
62694;BME280;48759;52.544;13.418;2023-05-02T04:54:28;100940.84;;;7.28;100.00
62694;BME280;48759;52.544;13.418;2023-05-02T04:57:19;100942.25;;;7.24;100.00
62694;BME280;48759;52.544;13.418;2023-05-02T04:59:47;100946.84;;;7.32;100.00
62694;BME280;48759;52.544;13.418;2023-05-02T05:02:30;100944.56;;;7.35;100.00
62694;BME280;48759;52.544;13.418;2023-05-02T05:05:19;100939.44;;;7.40;100.00
62694;BME280;48759;52.544;13.418;2023-05-02T05:07:51;100960.09;;;7.43;100.00
62694;BME280;48759;52.544;13.418;2023-05-02T05:10:22;100965.41;;;7.44;100.00
62694;BME280;48759;52.544;13.418;2023-05-02T05:12:50;100970.16;;;7.50;100.00
62694;BME280;48759;52.544;13.418;2023-05-02T05:15:18;100969.28;;;7.50;100.00
62694;BME280;48759;52.544;13.418;2023-05-02T05:17:59;100985.63;;;7.35;100.00
62694;BME280;48759;52.544;13.418;2023-05-02T05:20:39;100987.03;;;7.31;100.00
62694;BME280;48759;52.544;13.418;2023-05-02T05:23:05;100985.19;;;7.23;100.00
62694;BME280;48759;52.544;13.418;2023-05-02T05:25:33;100988.84;;;7.16;100.00
62694;BME280;48759;52.544;13.418;2023-05-02T05:28:02;100983.69;;;7.13;100.00
62694;BME280;48759;52.544;13.418;2023-05-02T05:30:29;100987.47;;;7.12;100.00
62694;BME280;48759;52.544;13.418;2023-05-02T05:32:56;100982.22;;;7.02;100.00
62694;BME280;48759;52.544;13.418;2023-05-02T05:35:26;100993.66;;;7.06;100.00
62694;BME280;48759;52.544;13.418;2023-05-02T05:37:54;101001.00;;;7.05;100.00
62694;BME280;48759;52.544;13.418;2023-05-02T05:40:24;101009.19;;;7.13;100.00
62694;BME280;48759;52.544;13.418;2023-05-02T05:42:54;101013.78;;;7.21;100.00
62694;BME280;48759;52.544;13.418;2023-05-02T05:45:25;101015.41;;;7.38;100.00
62694;BME280;48759;52.544;13.418;2023-05-02T05:47:55;101019.81;;;7.47;100.00
62694;BME280;48759;52.544;13.418;2023-05-02T05:50:23;101025.44;;;7.54;100.00
62694;BME280;48759;52.544;13.418;2023-05-02T05:52:49;101030.91;;;7.54;100.00
62694;BME280;48759;52.544;13.418;2023-05-02T05:55:16;101032.44;;;7.56;100.00
62694;BME280;48759;52.544;13.418;2023-05-02T05:57:43;101054.66;;;7.61;100.00
62694;BME280;48759;52.544;13.418;2023-05-02T06:00:14;101047.00;;;7.57;100.00
62694;BME280;48759;52.544;13.418;2023-05-02T06:02:44;101051.88;;;7.69;100.00
62694;BME280;48759;52.544;13.418;2023-05-02T06:05:10;101058.41;;;7.91;100.00
62694;BME280;48759;52.544;13.418;2023-05-02T06:07:42;101062.75;;;8.08;100.00
62694;BME280;48759;52.544;13.418;2023-05-02T06:10:09;101063.19;;;8.28;100.00
62694;BME280;48759;52.544;13.418;2023-05-02T06:12:37;101071.25;;;8.44;100.00
62694;BME280;48759;52.544;13.418;2023-05-02T06:15:05;101070.91;;;8.62;100.00
62694;BME280;48759;52.544;13.418;2023-05-02T06:17:33;101077.47;;;8.38;100.00
62694;BME280;48759;52.544;13.418;2023-05-02T06:20:00;101080.56;;;8.58;100.00
62694;BME280;48759;52.544;13.418;2023-05-02T06:22:28;101089.34;;;8.54;100.00
62694;BME280;48759;52.544;13.418;2023-05-02T06:24:55;101097.91;;;8.59;100.00
62694;BME280;48759;52.544;13.418;2023-05-02T06:27:22;101091.00;;;8.40;100.00
62694;BME280;48759;52.544;13.418;2023-05-02T06:29:50;101082.72;;;8.25;100.00
62694;BME280;48759;52.544;13.418;2023-05-02T06:32:17;101105.06;;;8.37;100.00
62694;BME280;48759;52.544;13.418;2023-05-02T06:34:48;101113.50;;;8.35;100.00
62694;BME280;48759;52.544;13.418;2023-05-02T06:37:15;101112.22;;;8.23;100.00
62694;BME280;48759;52.544;13.418;2023-05-02T06:39:42;101107.81;;;8.14;100.00
62694;BME280;48759;52.544;13.418;2023-05-02T06:42:09;101124.44;;;8.13;100.00
62694;BME280;48759;52.544;13.418;2023-05-02T06:44:36;101126.31;;;8.20;100.00
62694;BME280;48759;52.544;13.418;2023-05-02T06:47:04;101134.53;;;8.12;100.00
62694;BME280;48759;52.544;13.418;2023-05-02T06:49:31;101137.63;;;8.09;100.00
62694;BME280;48759;52.544;13.418;2023-05-02T06:52:02;101146.00;;;8.16;100.00
62694;BME280;48759;52.544;13.418;2023-05-02T06:54:29;101151.28;;;8.25;100.00
62694;BME280;48759;52.544;13.418;2023-05-02T06:56:58;101152.19;;;8.10;100.00
62694;BME280;48759;52.544;13.418;2023-05-02T06:59:25;101142.44;;;8.07;100.00
62694;BME280;48759;52.544;13.418;2023-05-02T07:01:52;101143.16;;;8.01;100.00
62694;BME280;48759;52.544;13.418;2023-05-02T07:04:19;101150.59;;;8.23;100.00
62694;BME280;48759;52.544;13.418;2023-05-02T07:06:46;101163.16;;;8.18;100.00
62694;BME280;48759;52.544;13.418;2023-05-02T07:09:14;101165.56;;;8.43;100.00
62694;BME280;48759;52.544;13.418;2023-05-02T07:11:41;101161.56;;;8.69;100.00
62694;BME280;48759;52.544;13.418;2023-05-02T07:14:08;101186.66;;;8.89;100.00
62694;BME280;48759;52.544;13.418;2023-05-02T07:16:35;101187.38;;;8.82;100.00
62694;BME280;48759;52.544;13.418;2023-05-02T07:19:02;101178.72;;;9.08;100.00
62694;BME280;48759;52.544;13.418;2023-05-02T07:21:32;101191.06;;;9.12;100.00
62694;BME280;48759;52.544;13.418;2023-05-02T07:24:03;101174.53;;;9.20;100.00
62694;BME280;48759;52.544;13.418;2023-05-02T07:26:48;101181.91;;;9.35;100.00
62694;BME280;48759;52.544;13.418;2023-05-02T07:29:28;101178.94;;;9.59;100.00
62694;BME280;48759;52.544;13.418;2023-05-02T07:32:02;101180.94;;;9.65;100.00
62694;BME280;48759;52.544;13.418;2023-05-02T07:34:33;101188.28;;;9.94;100.00
62694;BME280;48759;52.544;13.418;2023-05-02T07:37:18;101190.28;;;10.15;100.00
62694;BME280;48759;52.544;13.418;2023-05-02T07:40:08;101203.94;;;9.93;100.00
62694;BME280;48759;52.544;13.418;2023-05-02T07:43:08;101203.72;;;10.10;100.00
62694;BME280;48759;52.544;13.418;2023-05-02T07:45:45;101201.66;;;10.12;100.00
62694;BME280;48759;52.544;13.418;2023-05-02T07:48:46;101205.94;;;10.50;100.00
62694;BME280;48759;52.544;13.418;2023-05-02T07:51:18;101210.06;;;10.40;100.00
62694;BME280;48759;52.544;13.418;2023-05-02T07:53:48;101211.78;;;10.26;100.00
62694;BME280;48759;52.544;13.418;2023-05-02T07:56:39;101220.66;;;10.43;100.00
62694;BME280;48759;52.544;13.418;2023-05-02T07:59:23;101227.53;;;10.32;100.00
62694;BME280;48759;52.544;13.418;2023-05-02T08:01:57;101226.78;;;9.94;100.00
62694;BME280;48759;52.544;13.418;2023-05-02T08:04:28;101233.16;;;9.94;100.00
62694;BME280;48759;52.544;13.418;2023-05-02T08:06:58;101226.34;;;9.90;100.00
62694;BME280;48759;52.544;13.418;2023-05-02T08:09:29;101226.28;;;10.34;100.00
62694;BME280;48759;52.544;13.418;2023-05-02T08:12:10;101230.31;;;10.68;100.00
62694;BME280;48759;52.544;13.418;2023-05-02T08:14:40;101230.47;;;11.02;100.00
62694;BME280;48759;52.544;13.418;2023-05-02T08:17:13;101246.38;;;11.07;100.00
62694;BME280;48759;52.544;13.418;2023-05-02T08:19:56;101243.13;;;11.18;100.00
62694;BME280;48759;52.544;13.418;2023-05-02T08:22:24;101252.94;;;11.06;100.00
62694;BME280;48759;52.544;13.418;2023-05-02T08:24:55;101256.22;;;11.16;100.00
62694;BME280;48759;52.544;13.418;2023-05-02T08:27:24;101247.97;;;10.95;100.00
62694;BME280;48759;52.544;13.418;2023-05-02T08:30:09;101255.81;;;10.77;100.00
62694;BME280;48759;52.544;13.418;2023-05-02T08:32:43;101261.63;;;10.67;100.00
62694;BME280;48759;52.544;13.418;2023-05-02T08:35:24;101270.00;;;10.44;100.00
62694;BME280;48759;52.544;13.418;2023-05-02T08:37:52;101269.66;;;10.18;100.00
62694;BME280;48759;52.544;13.418;2023-05-02T08:40:33;101273.56;;;10.09;100.00
62694;BME280;48759;52.544;13.418;2023-05-02T08:43:12;101281.16;;;10.07;100.00
62694;BME280;48759;52.544;13.418;2023-05-02T08:45:46;101278.19;;;9.93;100.00
62694;BME280;48759;52.544;13.418;2023-05-02T08:48:17;101281.31;;;9.90;100.00
62694;BME280;48759;52.544;13.418;2023-05-02T08:51:03;101289.06;;;9.72;100.00
62694;BME280;48759;52.544;13.418;2023-05-02T08:53:51;101290.03;;;9.79;100.00
62694;BME280;48759;52.544;13.418;2023-05-02T08:56:20;101291.47;;;9.90;100.00
62694;BME280;48759;52.544;13.418;2023-05-02T08:58:51;101296.47;;;9.86;100.00
62694;BME280;48759;52.544;13.418;2023-05-02T09:05:18;101324.75;;;9.95;100.00
62694;BME280;48759;52.544;13.418;2023-05-02T09:08:25;101320.28;;;9.94;100.00
62694;BME280;48759;52.544;13.418;2023-05-02T09:11:00;101325.06;;;10.00;100.00
62694;BME280;48759;52.544;13.418;2023-05-02T09:13:55;101326.28;;;9.97;100.00
62694;BME280;48759;52.544;13.418;2023-05-02T09:16:43;101321.63;;;10.27;100.00
62694;BME280;48759;52.544;13.418;2023-05-02T09:19:46;101322.50;;;10.28;100.00
62694;BME280;48759;52.544;13.418;2023-05-02T09:22:49;101334.06;;;10.09;100.00
62694;BME280;48759;52.544;13.418;2023-05-02T09:25:37;101351.03;;;9.97;100.00
62694;BME280;48759;52.544;13.418;2023-05-02T09:28:13;101343.59;;;9.83;100.00
62694;BME280;48759;52.544;13.418;2023-05-02T09:30:49;101345.06;;;10.09;100.00
62694;BME280;48759;52.544;13.418;2023-05-02T09:33:34;101349.06;;;10.21;100.00
62694;BME280;48759;52.544;13.418;2023-05-02T09:36:10;101372.78;;;10.22;100.00
62694;BME280;48759;52.544;13.418;2023-05-02T09:38:47;101348.06;;;9.84;100.00
62694;BME280;48759;52.544;13.418;2023-05-02T09:41:42;101381.78;;;9.78;100.00
62694;BME280;48759;52.544;13.418;2023-05-02T09:44:14;101355.78;;;9.66;100.00
62694;BME280;48759;52.544;13.418;2023-05-02T09:49:59;101352.25;;;10.10;100.00
62694;BME280;48759;52.544;13.418;2023-05-02T09:53:00;101355.91;;;10.54;100.00
62694;BME280;48759;52.544;13.418;2023-05-02T09:56:17;101364.31;;;10.82;100.00
62694;BME280;48759;52.544;13.418;2023-05-02T09:58:52;101363.41;;;11.11;100.00
62694;BME280;48759;52.544;13.418;2023-05-02T10:01:56;101375.25;;;11.26;100.00
62694;BME280;48759;52.544;13.418;2023-05-02T10:04:27;101375.78;;;11.58;100.00
62694;BME280;48759;52.544;13.418;2023-05-02T10:07:08;101370.50;;;11.84;100.00
62694;BME280;48759;52.544;13.418;2023-05-02T10:09:43;101376.75;;;11.93;100.00
62694;BME280;48759;52.544;13.418;2023-05-02T10:12:13;101378.13;;;11.39;100.00
62694;BME280;48759;52.544;13.418;2023-05-02T10:14:44;101389.28;;;10.81;100.00
62694;BME280;48759;52.544;13.418;2023-05-02T10:17:22;101406.19;;;10.48;100.00
62694;BME280;48759;52.544;13.418;2023-05-02T10:19:56;101389.69;;;10.48;100.00
62694;BME280;48759;52.544;13.418;2023-05-02T10:22:25;101399.09;;;10.68;100.00
62694;BME280;48759;52.544;13.418;2023-05-02T10:24:52;101394.78;;;10.81;100.00
62694;BME280;48759;52.544;13.418;2023-05-02T10:27:21;101412.00;;;10.53;100.00
62694;BME280;48759;52.544;13.418;2023-05-02T10:29:50;101419.66;;;10.43;100.00
62694;BME280;48759;52.544;13.418;2023-05-02T10:32:17;101418.69;;;10.36;100.00
62694;BME280;48759;52.544;13.418;2023-05-02T10:34:45;101437.69;;;10.31;100.00
62694;BME280;48759;52.544;13.418;2023-05-02T10:37:12;101448.53;;;9.87;100.00
62694;BME280;48759;52.544;13.418;2023-05-02T10:39:41;101429.03;;;9.59;100.00
62694;BME280;48759;52.544;13.418;2023-05-02T10:42:08;101447.81;;;9.70;100.00
62694;BME280;48759;52.544;13.418;2023-05-02T10:44:39;101460.88;;;9.14;100.00
62694;BME280;48759;52.544;13.418;2023-05-02T10:47:18;101450.25;;;9.03;100.00
62694;BME280;48759;52.544;13.418;2023-05-02T10:49:49;101486.59;;;8.74;100.00
62694;BME280;48759;52.544;13.418;2023-05-02T10:52:28;101456.53;;;8.81;100.00
62694;BME280;48759;52.544;13.418;2023-05-02T10:55:17;101472.84;;;8.82;100.00
62694;BME280;48759;52.544;13.418;2023-05-02T10:58:21;101496.03;;;8.64;100.00
62694;BME280;48759;52.544;13.418;2023-05-02T11:00:49;101486.81;;;8.40;100.00
62694;BME280;48759;52.544;13.418;2023-05-02T11:06:17;101496.44;;;8.04;100.00
62694;BME280;48759;52.544;13.418;2023-05-02T11:08:44;101496.75;;;7.93;100.00
62694;BME280;48759;52.544;13.418;2023-05-02T11:11:37;101507.56;;;8.02;100.00
62694;BME280;48759;52.544;13.418;2023-05-02T11:14:03;101503.25;;;7.84;100.00
62694;BME280;48759;52.544;13.418;2023-05-02T11:20:20;101517.84;;;7.34;100.00
62694;BME280;48759;52.544;13.418;2023-05-02T11:22:48;101513.31;;;7.59;100.00
62694;BME280;48759;52.544;13.418;2023-05-02T11:25:30;101528.53;;;7.53;100.00
62694;BME280;48759;52.544;13.418;2023-05-02T11:27:59;101513.91;;;7.95;100.00
62694;BME280;48759;52.544;13.418;2023-05-02T11:30:42;101520.78;;;8.23;100.00
62694;BME280;48759;52.544;13.418;2023-05-02T11:33:14;101519.06;;;8.30;100.00
62694;BME280;48759;52.544;13.418;2023-05-02T11:35:44;101535.50;;;8.38;100.00
62694;BME280;48759;52.544;13.418;2023-05-02T11:38:13;101530.03;;;8.30;100.00
62694;BME280;48759;52.544;13.418;2023-05-02T11:40:40;101543.56;;;8.40;100.00
62694;BME280;48759;52.544;13.418;2023-05-02T11:43:14;101546.84;;;8.35;100.00
62694;BME280;48759;52.544;13.418;2023-05-02T11:45:42;101539.56;;;8.83;100.00
62694;BME280;48759;52.544;13.418;2023-05-02T11:48:11;101539.56;;;8.83;100.00
62694;BME280;48759;52.544;13.418;2023-05-02T11:50:43;101545.59;;;8.70;100.00
62694;BME280;48759;52.544;13.418;2023-05-02T11:53:11;101551.09;;;8.54;100.00
62694;BME280;48759;52.544;13.418;2023-05-02T11:55:44;101533.03;;;8.76;100.00
62694;BME280;48759;52.544;13.418;2023-05-02T11:58:13;101535.69;;;9.08;100.00
62694;BME280;48759;52.544;13.418;2023-05-02T12:00:40;101545.91;;;9.39;100.00
62694;BME280;48759;52.544;13.418;2023-05-02T12:03:26;101554.13;;;8.92;100.00
62694;BME280;48759;52.544;13.418;2023-05-02T12:05:55;101550.78;;;9.20;100.00
62694;BME280;48759;52.544;13.418;2023-05-02T12:08:24;101554.66;;;8.79;100.00
62694;BME280;48759;52.544;13.418;2023-05-02T12:10:55;101563.94;;;8.62;100.00
62694;BME280;48759;52.544;13.418;2023-05-02T12:13:23;101555.72;;;8.54;100.00
62694;BME280;48759;52.544;13.418;2023-05-02T12:15:52;101573.56;;;8.58;100.00
62694;BME280;48759;52.544;13.418;2023-05-02T12:18:22;101573.00;;;8.95;100.00
62694;BME280;48759;52.544;13.418;2023-05-02T12:21:05;101575.88;;;9.09;100.00
62694;BME280;48759;52.544;13.418;2023-05-02T12:23:38;101570.00;;;9.20;100.00
62694;BME280;48759;52.544;13.418;2023-05-02T12:26:17;101582.72;;;9.21;100.00
62694;BME280;48759;52.544;13.418;2023-05-02T12:28:49;101570.59;;;9.47;100.00
62694;BME280;48759;52.544;13.418;2023-05-02T12:31:17;101573.81;;;9.58;100.00
62694;BME280;48759;52.544;13.418;2023-05-02T12:33:47;101588.00;;;9.70;100.00
62694;BME280;48759;52.544;13.418;2023-05-02T12:36:23;101585.63;;;9.67;100.00
62694;BME280;48759;52.544;13.418;2023-05-02T12:38:58;101592.69;;;9.70;100.00
62694;BME280;48759;52.544;13.418;2023-05-02T12:41:34;101594.78;;;9.59;100.00
62694;BME280;48759;52.544;13.418;2023-05-02T12:44:15;101609.78;;;9.41;100.00
62694;BME280;48759;52.544;13.418;2023-05-02T12:47:00;101591.06;;;9.36;100.00
62694;BME280;48759;52.544;13.418;2023-05-02T12:49:33;101604.97;;;9.43;100.00
62694;BME280;48759;52.544;13.418;2023-05-02T12:55:15;101607.13;;;9.00;100.00
62694;BME280;48759;52.544;13.418;2023-05-02T12:57:42;101601.22;;;9.75;100.00
62694;BME280;48759;52.544;13.418;2023-05-02T13:00:10;101597.13;;;10.47;100.00
62694;BME280;48759;52.544;13.418;2023-05-02T13:02:39;101599.19;;;10.45;100.00
62694;BME280;48759;52.544;13.418;2023-05-02T13:05:13;101599.94;;;10.39;100.00
62694;BME280;48759;52.544;13.418;2023-05-02T13:07:42;101600.09;;;9.92;100.00
62694;BME280;48759;52.544;13.418;2023-05-02T13:10:09;101613.16;;;10.21;100.00
62694;BME280;48759;52.544;13.418;2023-05-02T13:12:36;101605.69;;;10.07;100.00
62694;BME280;48759;52.544;13.418;2023-05-02T13:15:04;101628.28;;;9.86;100.00
62694;BME280;48759;52.544;13.418;2023-05-02T13:17:32;101612.06;;;9.76;100.00
62694;BME280;48759;52.544;13.418;2023-05-02T13:19:59;101611.97;;;9.92;100.00
62694;BME280;48759;52.544;13.418;2023-05-02T13:22:26;101606.78;;;10.43;100.00
62694;BME280;48759;52.544;13.418;2023-05-02T13:24:55;101622.66;;;10.33;100.00
62694;BME280;48759;52.544;13.418;2023-05-02T13:27:25;101623.38;;;10.04;100.00
62694;BME280;48759;52.544;13.418;2023-05-02T13:29:52;101615.41;;;9.86;100.00
62694;BME280;48759;52.544;13.418;2023-05-02T13:32:19;101624.41;;;9.72;100.00
62694;BME280;48759;52.544;13.418;2023-05-02T13:34:47;101638.00;;;9.74;100.00
62694;BME280;48759;52.544;13.418;2023-05-02T13:37:14;101638.19;;;10.03;100.00
62694;BME280;48759;52.544;13.418;2023-05-02T13:39:40;101623.34;;;9.81;100.00
62694;BME280;48759;52.544;13.418;2023-05-02T13:42:09;101631.84;;;9.64;100.00
62694;BME280;48759;52.544;13.418;2023-05-02T13:44:35;101638.03;;;9.66;100.00
62694;BME280;48759;52.544;13.418;2023-05-02T13:47:02;101641.09;;;10.02;100.00
62694;BME280;48759;52.544;13.418;2023-05-02T13:49:29;101670.38;;;9.47;100.00
62694;BME280;48759;52.544;13.418;2023-05-02T13:51:56;101644.50;;;9.09;100.00
62694;BME280;48759;52.544;13.418;2023-05-02T13:54:23;101648.16;;;9.65;100.00
62694;BME280;48759;52.544;13.418;2023-05-02T13:56:50;101647.22;;;9.42;100.00
62694;BME280;48759;52.544;13.418;2023-05-02T13:59:19;101675.91;;;9.15;100.00
62694;BME280;48759;52.544;13.418;2023-05-02T14:01:45;101667.19;;;8.79;100.00
62694;BME280;48759;52.544;13.418;2023-05-02T14:04:15;101660.50;;;8.57;100.00
62694;BME280;48759;52.544;13.418;2023-05-02T14:06:45;101668.59;;;8.91;100.00
62694;BME280;48759;52.544;13.418;2023-05-02T14:09:12;101675.72;;;9.25;100.00
62694;BME280;48759;52.544;13.418;2023-05-02T14:11:42;101665.16;;;10.08;100.00
62694;BME280;48759;52.544;13.418;2023-05-02T14:14:12;101681.78;;;9.83;100.00
62694;BME280;48759;52.544;13.418;2023-05-02T14:16:40;101674.94;;;9.71;100.00
62694;BME280;48759;52.544;13.418;2023-05-02T14:19:07;101678.34;;;10.43;100.00
62694;BME280;48759;52.544;13.418;2023-05-02T14:21:34;101682.38;;;9.54;100.00